Time;durP1;ratioP1;P1;durP2;ratioP2;P2;SDS_P1;SDS_P2;PMS_P1;PMS_P2;Temp;Humidity;BMP_temperature;BMP_pressure;BME280_temperature;BME280_humidity;BME280_pressure;Samples;Min_cycle;Max_cycle;Signal;HPM_P1;HPM_P2
2023/06/13 00:01:24;;;;;;;3.00;1.30;;;15.40;42.10;;;;;;5039638;28;20919;-70
2023/06/13 00:03:53;;;;;;;1.42;1.33;;;15.40;42.20;;;;;;5037920;28;20863;-70
2023/06/13 00:06:21;;;;;;;1.55;1.23;;;15.40;41.40;;;;;;5038827;28;20429;-70
2023/06/13 00:08:48;;;;;;;2.05;1.48;;;15.30;42.70;;;;;;5070858;28;21280;-70
2023/06/13 00:11:17;;;;;;;1.88;1.38;;;15.30;42.50;;;;;;5072651;28;20480;-70
2023/06/13 00:13:45;;;;;;;1.30;1.20;;;15.30;42.70;;;;;;5032266;28;20436;-70
2023/06/13 00:16:12;;;;;;;1.42;1.33;;;15.30;42.90;;;;;;5029469;28;20435;-70
2023/06/13 00:18:38;;;;;;;1.60;1.50;;;15.30;58.00;;;;;;5037713;28;20436;-70
2023/06/13 00:21:06;;;;;;;1.20;1.10;;;15.30;43.60;;;;;;5041165;28;20437;-70
2023/06/13 00:23:35;;;;;;;1.80;1.60;;;15.30;43.80;;;;;;5038557;28;20828;-70
2023/06/13 00:26:01;;;;;;;3.42;1.42;;;15.30;43.30;;;;;;5043569;28;20429;-70
2023/06/13 00:28:28;;;;;;;1.33;1.23;;;15.20;43.90;;;;;;5038516;28;20548;-69
2023/06/13 00:30:55;;;;;;;1.40;1.25;;;15.20;44.00;;;;;;5039935;28;20988;-70
2023/06/13 00:33:31;;;;;;;1.17;1.08;;;15.10;43.70;;;;;;5043979;28;20911;-70
2023/06/13 00:35:58;;;;;;;1.40;1.10;;;15.10;43.30;;;;;;5041383;28;20433;-70
2023/06/13 00:38:24;;;;;;;0.90;0.90;;;15.00;42.60;;;;;;5041324;28;20429;-70
2023/06/13 00:40:51;;;;;;;1.60;1.20;;;15.00;43.30;;;;;;5041647;28;20491;-70
2023/06/13 00:43:21;;;;;;;1.10;1.10;;;14.90;43.30;;;;;;5043380;28;21211;-70
2023/06/13 00:45:47;;;;;;;1.45;1.38;;;14.90;43.40;;;;;;5040782;28;20705;-70
2023/06/13 00:48:15;;;;;;;0.85;0.85;;;14.80;44.10;;;;;;5042826;28;20520;-70
2023/06/13 00:50:47;;;;;;;1.87;1.30;;;14.80;45.30;;;;;;5043100;28;20435;-70
2023/06/13 00:53:19;;;;;;;1.42;1.33;;;14.80;44.20;;;;;;5041248;28;20456;-70
2023/06/13 00:55:51;;;;;;;1.15;1.15;;;14.80;45.00;;;;;;5039302;28;20424;-70
2023/06/13 00:58:18;;;;;;;2.13;1.23;;;14.80;45.00;;;;;;5040401;28;20439;-70
2023/06/13 01:00:45;;;;;;;1.40;1.30;;;14.80;45.20;;;;;;5037451;28;20525;-70
2023/06/13 01:03:15;;;;;;;1.73;1.17;;;14.80;45.10;;;;;;5041181;28;20437;-70
2023/06/13 01:05:43;;;;;;;0.90;0.90;;;14.80;45.70;;;;;;5070547;28;20456;-70
2023/06/13 01:08:13;;;;;;;2.08;1.33;;;14.80;45.90;;;;;;5041316;28;20429;-70
2023/06/13 01:10:41;;;;;;;1.65;1.40;;;14.80;47.00;;;;;;5040108;28;20796;-70
2023/06/13 01:13:24;;;;;;;0.80;0.80;;;14.70;45.90;;;;;;5030365;28;20451;-70
2023/06/13 01:15:54;;;;;;;1.20;1.10;;;14.70;46.80;;;;;;5065700;28;20486;-70
2023/06/13 01:18:24;;;;;;;1.40;0.93;;;14.60;46.50;;;;;;5041361;28;20625;-70
2023/06/13 01:20:56;;;;;;;1.33;1.23;;;14.60;46.80;;;;;;5043256;28;20530;-70
2023/06/13 01:23:36;;;;;;;2.15;1.35;;;14.50;47.60;;;;;;5042573;28;20441;-70
2023/06/13 01:26:28;;;;;;;1.10;1.00;;;14.50;47.70;;;;;;5042144;28;20433;-70
2023/06/13 01:28:57;;;;;;;3.15;1.15;;;14.40;47.50;;;;;;5038574;28;20626;-69
2023/06/13 01:31:24;;;;;;;2.22;1.38;;;14.50;48.30;;;;;;5040381;28;20439;-70
2023/06/13 01:33:51;;;;;;;0.90;0.90;;;14.40;49.10;;;;;;5042243;28;20518;-70
2023/06/13 01:36:19;;;;;;;1.30;1.20;;;14.40;49.70;;;;;;5040325;28;20433;-70
2023/06/13 01:38:47;;;;;;;1.10;1.10;;;14.40;49.80;;;;;;5040287;28;20455;-70
2023/06/13 01:41:13;;;;;;;1.40;1.30;;;14.30;51.80;;;;;;5040954;28;20460;-70
2023/06/13 01:43:40;;;;;;;1.10;1.00;;;14.30;52.50;;;;;;5040468;28;20514;-71
2023/06/13 01:46:17;;;;;;;1.50;1.30;;;14.20;53.30;;;;;;5041929;28;20987;-70
2023/06/13 01:49:17;;;;;;;1.10;1.10;;;14.20;54.50;;;;;;5042523;28;20842;-70
2023/06/13 01:52:13;;;;;;;1.17;1.13;;;14.10;55.20;;;;;;5039926;28;20433;-70
2023/06/13 01:54:47;;;;;;;1.25;1.20;;;14.10;56.50;;;;;;5037451;28;20475;-70
2023/06/13 01:57:23;;;;;;;1.27;1.17;;;14.10;56.80;;;;;;5037119;28;20433;-70
2023/06/13 01:59:55;;;;;;;1.05;1.00;;;14.10;58.00;;;;;;5039418;28;22125;-70
2023/06/13 02:02:23;;;;;;;1.13;1.05;;;14.10;58.50;;;;;;5042766;28;20548;-70
2023/06/13 02:04:50;;;;;;;1.17;1.08;;;14.20;59.00;;;;;;5041255;28;20503;-70
2023/06/13 02:07:16;;;;;;;1.23;1.13;;;14.20;59.50;;;;;;5042089;28;20891;-70
2023/06/13 02:09:43;;;;;;;1.30;1.10;;;14.20;59.90;;;;;;5039224;28;20919;-70
2023/06/13 02:12:11;;;;;;;1.73;1.23;;;14.10;60.50;;;;;;5044555;28;20479;-70
2023/06/13 02:14:39;;;;;;;1.40;1.13;;;14.10;61.80;;;;;;5040631;28;20520;-70
2023/06/13 02:17:08;;;;;;;1.67;1.15;;;14.10;61.30;;;;;;5039125;28;20972;-70
2023/06/13 02:19:35;;;;;;;1.50;1.40;;;14.10;61.20;;;;;;5042304;28;20444;-70
2023/06/13 02:22:02;;;;;;;1.10;1.00;;;14.00;61.20;;;;;;5038684;28;20487;-70
2023/06/13 02:24:29;;;;;;;0.85;0.85;;;14.00;62.10;;;;;;5043669;28;20437;-70
2023/06/13 02:26:59;;;;;;;1.17;1.08;;;13.90;62.70;;;;;;5052112;28;20425;-70
2023/06/13 02:29:26;;;;;;;1.15;1.02;;;13.90;64.70;;;;;;5041222;28;20425;-70
2023/06/13 02:31:53;;;;;;;0.82;0.82;;;13.90;65.10;;;;;;5039443;28;20433;-70
2023/06/13 02:34:20;;;;;;;1.00;0.73;;;13.80;66.80;;;;;;5040838;28;20424;-70
2023/06/13 02:36:46;;;;;;;0.97;0.97;;;13.80;69.20;;;;;;5041306;28;20858;-69
2023/06/13 02:39:13;;;;;;;1.25;1.15;;;13.80;69.90;;;;;;5041198;28;20533;-70
2023/06/13 02:41:42;;;;;;;1.20;1.10;;;13.80;71.50;;;;;;5040453;28;20433;-70
2023/06/13 02:44:09;;;;;;;1.10;0.77;;;13.80;73.30;;;;;;5040167;28;20469;-70
2023/06/13 02:46:36;;;;;;;1.58;1.15;;;13.80;73.30;;;;;;5039874;28;20456;-70
2023/06/13 02:49:06;;;;;;;2.13;1.05;;;13.70;74.10;;;;;;5041300;28;20504;-70
2023/06/13 02:51:35;;;;;;;1.03;1.03;;;13.60;75.50;;;;;;5036570;28;20432;-70
2023/06/13 02:54:01;;;;;;;1.33;1.20;;;13.50;77.80;;;;;;5039801;28;20801;-70
2023/06/13 02:56:29;;;;;;;1.00;1.00;;;13.50;83.90;;;;;;5038605;28;20566;-72
2023/06/13 02:58:55;;;;;;;1.40;1.30;;;13.50;87.30;;;;;;5065793;28;20923;-71
2023/06/13 03:01:22;;;;;;;0.75;0.75;;;13.50;90.90;;;;;;5038045;28;20436;-70
2023/06/13 03:03:51;;;;;;;1.40;1.23;;;13.50;91.40;;;;;;5038911;28;20497;-70
2023/06/13 03:06:18;;;;;;;1.70;1.17;;;13.50;92.20;;;;;;5038771;28;20429;-71
2023/06/13 03:08:46;;;;;;;1.20;1.10;;;13.50;93.20;;;;;;5040708;28;20831;-70
2023/06/13 03:11:16;;;;;;;1.15;1.15;;;13.50;95.60;;;;;;5042042;28;20433;-70
2023/06/13 03:13:45;;;;;;;1.30;1.17;;;13.40;96.80;;;;;;5036659;28;20436;-71
2023/06/13 03:16:17;;;;;;;0.82;0.82;;;13.40;99.60;;;;;;5032901;28;20494;-70
2023/06/13 03:18:44;;;;;;;1.75;1.10;;;13.20;99.90;;;;;;5032804;28;20998;-70
2023/06/13 03:21:11;;;;;;;1.00;1.00;;;13.20;99.90;;;;;;5032558;28;20474;-71
2023/06/13 03:23:40;;;;;;;1.40;0.98;;;13.20;99.90;;;;;;5037045;28;20788;-70
2023/06/13 03:26:09;;;;;;;1.42;1.33;;;13.10;99.90;;;;;;5036693;28;20457;-70
2023/06/13 03:28:36;;;;;;;1.02;1.02;;;13.00;99.90;;;;;;5040550;28;20437;-70
2023/06/13 03:31:04;;;;;;;1.60;1.50;;;13.00;99.90;;;;;;5038795;28;20854;-70
2023/06/13 03:33:30;;;;;;;2.38;1.00;;;13.00;99.90;;;;;;5040581;28;20536;-70
2023/06/13 03:36:00;;;;;;;1.33;1.23;;;12.90;99.90;;;;;;5036548;28;20435;-70
2023/06/13 03:38:27;;;;;;;1.38;1.20;;;12.90;99.90;;;;;;5037268;28;20429;-70
2023/06/13 03:40:54;;;;;;;1.20;1.02;;;12.90;99.90;;;;;;5040869;28;20495;-71
2023/06/13 03:43:21;;;;;;;0.97;0.97;;;12.80;99.90;;;;;;5039549;28;20671;-70
2023/06/13 03:45:48;;;;;;;0.93;0.93;;;12.80;99.90;;;;;;5038725;28;20911;-71
2023/06/13 03:48:15;;;;;;;1.50;1.40;;;12.80;99.90;;;;;;5039811;28;20433;-70
2023/06/13 03:50:42;;;;;;;1.38;1.27;;;12.80;99.90;;;;;;5040182;28;20439;-71
2023/06/13 03:53:14;;;;;;;2.15;1.15;;;12.80;99.90;;;;;;5036219;28;20429;-70
2023/06/13 03:55:41;;;;;;;1.25;1.15;;;12.80;99.90;;;;;;5041421;28;20465;-71
2023/06/13 03:58:08;;;;;;;0.95;0.77;;;12.70;99.90;;;;;;5039676;28;20433;-70
2023/06/13 04:00:39;;;;;;;0.70;0.70;;;12.70;99.90;;;;;;5039883;28;20532;-70
2023/06/13 04:03:08;;;;;;;1.67;1.57;;;12.80;99.90;;;;;;5038086;28;20446;-70
2023/06/13 04:05:35;;;;;;;0.87;0.80;;;12.80;99.90;;;;;;5044113;28;20432;-70
2023/06/13 04:08:05;;;;;;;1.20;0.95;;;12.80;99.90;;;;;;5041446;28;20452;-70
2023/06/13 04:10:32;;;;;;;1.60;1.30;;;12.90;99.90;;;;;;5041628;28;20435;-70
2023/06/13 04:13:00;;;;;;;0.95;0.90;;;12.90;99.90;;;;;;5046308;28;20508;-70
2023/06/13 04:15:27;;;;;;;2.42;1.05;;;13.00;99.90;;;;;;5043502;28;20822;-70
2023/06/13 04:17:56;;;;;;;1.48;0.80;;;13.20;99.90;;;;;;5040871;28;20559;-71
2023/06/13 04:20:24;;;;;;;0.90;0.90;;;13.20;99.90;;;;;;5043927;28;20490;-71
2023/06/13 04:22:52;;;;;;;1.17;1.17;;;13.30;99.90;;;;;;5038513;28;20931;-71
2023/06/13 04:25:22;;;;;;;1.08;1.08;;;13.50;99.90;;;;;;5041194;28;20442;-71
2023/06/13 04:27:49;;;;;;;1.50;1.08;;;13.60;99.90;;;;;;5040254;28;20437;-71
2023/06/13 04:30:16;;;;;;;0.77;0.77;;;13.70;99.90;;;;;;5042903;28;20460;-71
2023/06/13 04:32:45;;;;;;;1.00;1.00;;;13.80;99.90;;;;;;5041984;28;20429;-71
2023/06/13 04:35:17;;;;;;;1.85;1.05;;;13.90;99.90;;;;;;5041228;28;20446;-70
2023/06/13 04:37:46;;;;;;;0.77;0.68;;;14.00;99.90;;;;;;5044431;28;20428;-71
2023/06/13 04:40:16;;;;;;;0.98;0.98;;;14.20;99.90;;;;;;5043167;28;20458;-71
2023/06/13 04:42:51;;;;;;;0.65;0.65;;;14.50;99.90;;;;;;5042733;28;20433;-71
2023/06/13 04:45:24;;;;;;;1.70;1.15;;;15.40;99.90;;;;;;5039327;28;20495;-71
2023/06/13 04:47:56;;;;;;;0.98;0.98;;;16.50;99.90;;;;;;5043353;28;20480;-71
2023/06/13 04:50:25;;;;;;;1.15;1.15;;;17.40;99.90;;;;;;5043462;28;20438;-71
2023/06/13 04:52:57;;;;;;;1.02;1.02;;;18.20;97.20;;;;;;5039032;28;20472;-71
2023/06/13 04:55:32;;;;;;;1.15;1.10;;;18.80;95.30;;;;;;5039674;28;20455;-71
2023/06/13 04:58:02;;;;;;;1.20;1.10;;;19.40;94.10;;;;;;5039429;28;20456;-71
2023/06/13 05:00:29;;;;;;;1.15;1.05;;;19.90;92.70;;;;;;5041512;28;20477;-71
2023/06/13 05:02:56;;;;;;;2.30;1.55;;;20.30;91.20;;;;;;5071970;28;20437;-70
2023/06/13 05:05:23;;;;;;;7.10;1.42;;;20.50;90.30;;;;;;5041616;28;20520;-69
2023/06/13 05:07:55;;;;;;;1.43;1.00;;;20.70;89.40;;;;;;5040667;28;20435;-71
2023/06/13 05:10:23;;;;;;;1.20;1.10;;;20.90;89.80;;;;;;5042554;28;20513;-70
2023/06/13 05:12:52;;;;;;;1.38;1.20;;;21.20;89.20;;;;;;5045778;28;20428;-70
2023/06/13 05:15:20;;;;;;;1.03;1.03;;;21.40;88.90;;;;;;5040119;28;20431;-70
2023/06/13 05:17:54;;;;;;;0.85;0.85;;;21.50;87.30;;;;;;5042679;28;20463;-71
2023/06/13 05:20:26;;;;;;;1.30;1.20;;;21.40;87.10;;;;;;5041029;28;20524;-70
2023/06/13 05:22:53;;;;;;;1.50;1.30;;;21.60;85.80;;;;;;5032515;28;20516;-71
2023/06/13 05:25:21;;;;;;;1.08;1.08;;;21.80;86.40;;;;;;5032399;28;21013;-71
2023/06/13 05:27:52;;;;;;;1.95;1.35;;;21.90;86.50;;;;;;5038940;28;20498;-71
2023/06/13 05:30:21;;;;;;;1.42;1.25;;;22.00;92.70;;;;;;5040026;28;20796;-71
2023/06/13 05:32:48;;;;;;;1.00;1.00;;;22.10;85.40;;;;;;5039343;28;20516;-72
2023/06/13 05:35:17;;;;;;;1.27;1.10;;;22.40;86.20;;;;;;5072271;28;20790;-71
2023/06/13 05:37:46;;;;;;;2.15;1.05;;;22.70;87.20;;;;;;5041822;28;20514;-72
2023/06/13 05:40:13;;;;;;;1.08;0.98;;;23.00;87.90;;;;;;5040272;28;20452;-72
2023/06/13 05:42:40;;;;;;;1.33;1.23;;;22.90;87.30;;;;;;5042348;28;20784;-71
2023/06/13 05:45:08;;;;;;;0.95;0.90;;;23.10;86.80;;;;;;5041776;28;20538;-71
2023/06/13 05:47:38;;;;;;;1.00;1.00;;;23.20;87.40;;;;;;5040747;28;20791;-71
2023/06/13 05:50:05;;;;;;;1.10;1.00;;;23.70;88.70;;;;;;5042025;28;20487;-71
2023/06/13 05:52:35;;;;;;;1.20;1.20;;;23.80;88.20;;;;;;5040284;28;20516;-71
2023/06/13 05:55:05;;;;;;;0.90;0.90;;;24.10;89.50;;;;;;5039165;28;20520;-70
2023/06/13 05:57:43;;;;;;;1.10;1.10;;;24.20;90.00;;;;;;5070552;28;20465;-71
2023/06/13 06:00:13;;;;;;;1.10;1.10;;;24.20;88.10;;;;;;5040355;28;20924;-71
2023/06/13 06:02:43;;;;;;;1.67;1.33;;;24.50;89.70;;;;;;5039806;28;20437;-71
2023/06/13 06:05:11;;;;;;;1.07;1.00;;;24.70;90.00;;;;;;5040134;28;21095;-71
2023/06/13 06:07:39;;;;;;;1.10;1.00;;;24.50;88.00;;;;;;5041135;28;20436;-72
2023/06/13 06:10:07;;;;;;;1.65;1.50;;;24.70;88.30;;;;;;5070162;28;20425;-72
2023/06/13 06:12:37;;;;;;;1.33;1.23;;;24.50;87.30;;;;;;5043584;28;21024;-71
2023/06/13 06:15:05;;;;;;;1.10;1.10;;;25.10;89.90;;;;;;5041153;28;20436;-71
2023/06/13 06:17:31;;;;;;;1.50;1.20;;;25.20;89.70;;;;;;5040590;28;20500;-71
2023/06/13 06:19:58;;;;;;;1.00;0.95;;;24.90;87.60;;;;;;5039011;28;20487;-71
2023/06/13 06:22:25;;;;;;;0.95;0.95;;;25.20;88.70;;;;;;5039226;28;20440;-71
2023/06/13 06:24:52;;;;;;;1.20;1.10;;;25.50;89.30;;;;;;5040728;28;20480;-71
2023/06/13 06:27:18;;;;;;;1.05;1.05;;;24.90;87.60;;;;;;5037078;28;20883;-71
2023/06/13 06:29:45;;;;;;;1.05;1.05;;;25.30;87.60;;;;;;5036140;28;20642;-71
2023/06/13 06:32:12;;;;;;;1.30;1.20;;;25.30;87.90;;;;;;5043488;28;20437;-70
2023/06/13 06:34:41;;;;;;;1.02;0.98;;;25.40;87.00;;;;;;5038119;28;20433;-70
2023/06/13 06:37:08;;;;;;;1.10;1.10;;;25.30;86.40;;;;;;5041911;28;20676;-71
2023/06/13 06:39:38;;;;;;;1.15;1.08;;;25.50;87.30;;;;;;5039670;28;20524;-70
2023/06/13 06:42:05;;;;;;;1.48;0.98;;;25.80;88.40;;;;;;5040811;28;20887;-71
2023/06/13 06:44:35;;;;;;;1.45;0.90;;;25.70;87.40;;;;;;5070180;28;21167;-70
2023/06/13 06:47:11;;;;;;;1.10;1.00;;;25.90;88.10;;;;;;5066150;28;20510;-71
2023/06/13 06:49:38;;;;;;;2.30;1.20;;;26.10;88.60;;;;;;5039387;28;20472;-70
2023/06/13 06:52:05;;;;;;;1.70;1.10;;;26.00;88.00;;;;;;5040548;28;20429;-71
2023/06/13 06:54:33;;;;;;;1.13;1.10;;;26.00;88.10;;;;;;5038632;28;20468;-70
2023/06/13 06:57:03;;;;;;;1.00;1.00;;;25.60;85.60;;;;;;5038209;28;20456;-70
2023/06/13 06:59:30;;;;;;;1.77;1.07;;;26.20;88.00;;;;;;5072292;28;20453;-71
2023/06/13 07:01:57;;;;;;;0.85;0.85;;;26.30;88.70;;;;;;5036713;28;20693;-70
2023/06/13 07:04:24;;;;;;;0.90;0.90;;;25.90;85.10;;;;;;5035723;28;20432;-70
2023/06/13 07:06:51;;;;;;;0.75;0.75;;;25.70;83.70;;;;;;5069274;28;20487;-70
2023/06/13 07:09:18;;;;;;;0.87;0.87;;;25.70;83.30;;;;;;5040802;28;20429;-71
2023/06/13 07:11:45;;;;;;;1.30;1.10;;;25.60;83.10;;;;;;5040051;28;20465;-71
2023/06/13 07:14:11;;;;;;;1.33;0.90;;;24.60;77.20;;;;;;5037494;28;20433;-70
2023/06/13 07:16:38;;;;;;;1.17;1.08;;;25.10;79.00;;;;;;5040597;28;20428;-70
2023/06/13 07:19:05;;;;;;;1.60;1.10;;;25.40;82.00;;;;;;5038892;28;20429;-70
2023/06/13 07:21:32;;;;;;;0.88;0.80;;;25.80;82.20;;;;;;5039887;28;20531;-70
2023/06/13 07:24:01;;;;;;;1.05;0.95;;;25.90;82.70;;;;;;5037420;28;21017;-70
2023/06/13 07:26:34;;;;;;;1.03;1.03;;;26.70;88.50;;;;;;5033309;28;21080;-70
2023/06/13 07:29:03;;;;;;;0.90;0.90;;;26.70;86.80;;;;;;5029967;28;20872;-71
2023/06/13 07:31:30;;;;;;;1.10;1.10;;;26.50;85.30;;;;;;5041684;28;20439;-70
2023/06/13 07:34:00;;;;;;;1.10;1.05;;;26.10;84.10;;;;;;5035824;28;20478;-70
2023/06/13 07:36:27;;;;;;;2.95;0.95;;;26.20;83.90;;;;;;5040659;28;20424;-70
2023/06/13 07:38:54;;;;;;;1.40;1.30;;;26.70;87.80;;;;;;5037743;28;20490;-70
2023/06/13 07:41:25;;;;;;;2.50;1.00;;;26.80;87.40;;;;;;5038932;28;20439;-70
2023/06/13 07:43:57;;;;;;;1.40;1.07;;;26.10;83.90;;;;;;5040013;28;20429;-70
2023/06/13 07:46:26;;;;;;;1.10;1.00;;;26.70;84.80;;;;;;5037995;28;20495;-70
2023/06/13 07:48:53;;;;;;;1.30;1.02;;;26.30;83.20;;;;;;5070116;28;20460;-70
2023/06/13 07:51:20;;;;;;;1.02;1.02;;;26.00;80.10;;;;;;5036233;28;20524;-70
2023/06/13 07:53:47;;;;;;;1.15;1.08;;;26.20;81.30;;;;;;5034042;28;20468;-71
2023/06/13 07:56:14;;;;;;;0.90;0.90;;;25.50;78.20;;;;;;5039719;28;20636;-70
2023/06/13 07:58:47;;;;;;;1.02;1.00;;;26.00;79.80;;;;;;5039455;28;20435;-70
2023/06/13 08:01:14;;;;;;;1.10;1.10;;;26.50;84.10;;;;;;5033237;28;21081;-71
2023/06/13 08:03:41;;;;;;;0.90;0.90;;;25.80;79.30;;;;;;5036394;28;20457;-70
2023/06/13 08:06:11;;;;;;;1.65;0.90;;;26.00;79.40;;;;;;5037724;28;20483;-70
2023/06/13 08:08:38;;;;;;;0.90;0.90;;;26.00;78.10;;;;;;5035980;28;20503;-71
2023/06/13 08:11:04;;;;;;;0.80;0.80;;;26.40;81.70;;;;;;5041718;28;20433;-71
2023/06/13 08:13:31;;;;;;;1.20;1.00;;;26.00;78.90;;;;;;5040644;28;20969;-71
2023/06/13 08:15:58;;;;;;;0.85;0.85;;;26.00;77.70;;;;;;5038872;28;20425;-70
2023/06/13 08:18:25;;;;;;;1.33;0.90;;;25.30;74.20;;;;;;5038324;28;20433;-70
2023/06/13 08:20:52;;;;;;;0.80;0.80;;;26.00;78.80;;;;;;5036161;28;21333;-71
2023/06/13 08:23:19;;;;;;;0.90;0.90;;;26.80;83.80;;;;;;5038585;28;20528;-71
2023/06/13 08:25:46;;;;;;;0.90;0.90;;;27.40;86.80;;;;;;5039408;28;20430;-71
2023/06/13 08:28:17;;;;;;;1.05;1.05;;;26.80;82.60;;;;;;5039517;28;20847;-71
2023/06/13 08:30:45;;;;;;;0.90;0.90;;;26.80;82.40;;;;;;5038704;28;20452;-71
2023/06/13 08:33:13;;;;;;;0.90;0.90;;;26.50;80.20;;;;;;5038313;28;20490;-70
2023/06/13 08:35:40;;;;;;;1.20;1.10;;;26.70;80.90;;;;;;5036945;28;20429;-71
2023/06/13 08:38:07;;;;;;;1.13;1.08;;;26.50;79.90;;;;;;5035763;28;20429;-71
2023/06/13 08:40:34;;;;;;;1.02;0.98;;;26.30;77.50;;;;;;5038552;28;20741;-71
2023/06/13 08:43:03;;;;;;;0.80;0.80;;;26.70;80.20;;;;;;5041044;28;20970;-71
2023/06/13 08:45:30;;;;;;;1.20;1.10;;;26.60;80.40;;;;;;5042328;28;20804;-71
2023/06/13 08:47:58;;;;;;;1.30;1.20;;;25.80;75.40;;;;;;5040744;28;20939;-70
2023/06/13 08:50:26;;;;;;;1.15;1.15;;;25.30;72.00;;;;;;5041924;28;20455;-71
2023/06/13 08:52:57;;;;;;;1.10;1.00;;;25.50;72.20;;;;;;5043185;28;20493;-70
2023/06/13 08:55:28;;;;;;;1.00;1.00;;;25.60;88.20;;;;;;5041364;28;20456;-71
2023/06/13 08:58:00;;;;;;;1.73;0.93;;;26.20;76.10;;;;;;5041183;28;20425;-72
2023/06/13 09:00:28;;;;;;;1.55;1.00;;;26.80;79.50;;;;;;5035999;28;20506;-71
2023/06/13 09:02:55;;;;;;;1.30;1.20;;;27.40;83.40;;;;;;5043027;28;20464;-71
2023/06/13 09:05:23;;;;;;;2.35;0.90;;;27.80;85.00;;;;;;5041872;28;20951;-71
2023/06/13 09:07:50;;;;;;;0.95;0.95;;;27.10;81.80;;;;;;5037916;28;20808;-71
2023/06/13 09:10:39;;;;;;;1.63;1.42;;;27.20;82.70;;;;;;5039233;28;20486;-71
2023/06/13 09:13:07;;;;;;;1.05;1.05;;;27.00;81.00;;;;;;5033503;28;20439;-71
2023/06/13 09:15:35;;;;;;;0.77;0.77;;;27.50;83.20;;;;;;5037454;28;21161;-71
2023/06/13 09:18:02;;;;;;;1.15;0.90;;;27.80;85.40;;;;;;5034539;28;20516;-72
2023/06/13 09:20:30;;;;;;;0.80;0.80;;;27.00;81.20;;;;;;5035107;28;20507;-70
2023/06/13 09:23:01;;;;;;;1.80;0.90;;;26.90;81.10;;;;;;5033383;28;20429;-71
2023/06/13 09:25:31;;;;;;;3.10;1.00;;;26.00;73.80;;;;;;5033258;28;20469;-69
2023/06/13 09:27:57;;;;;;;1.10;1.00;;;26.60;77.30;;;;;;5034309;28;20924;-71
2023/06/13 09:30:25;;;;;;;1.40;1.13;;;26.50;77.70;;;;;;5030189;28;20528;-71
2023/06/13 09:32:53;;;;;;;1.23;0.90;;;26.60;77.40;;;;;;5066428;28;20468;-71
2023/06/13 09:35:20;;;;;;;1.07;0.97;;;27.00;80.50;;;;;;5034124;28;20888;-70
2023/06/13 09:38:05;;;;;;;1.25;1.15;;;26.00;73.90;;;;;;5032429;28;20429;-71
2023/06/13 09:40:39;;;;;;;0.82;0.82;;;26.50;76.00;;;;;;5033274;28;20431;-71
2023/06/13 09:43:07;;;;;;;0.90;0.90;;;26.90;91.60;;;;;;5036164;28;20457;-70
2023/06/13 09:45:34;;;;;;;1.00;0.90;;;27.60;81.40;;;;;;5035784;28;20471;-70
2023/06/13 09:48:06;;;;;;;3.15;1.15;;;28.10;83.40;;;;;;5033935;28;20441;-71
2023/06/13 09:50:34;;;;;;;0.90;0.90;;;27.90;83.30;;;;;;5034142;28;20473;-71
2023/06/13 09:53:01;;;;;;;1.27;1.27;;;27.70;81.10;;;;;;5032355;28;20435;-70
2023/06/13 09:55:29;;;;;;;1.20;1.00;;;27.50;79.20;;;;;;5031560;28;20773;-70
2023/06/13 09:58:01;;;;;;;1.10;1.00;;;26.80;74.10;;;;;;5036718;28;20429;-70
2023/06/13 10:00:34;;;;;;;1.00;1.00;;;27.00;76.30;;;;;;5043993;28;20457;-70
2023/06/13 10:03:02;;;;;;;0.95;0.90;;;27.30;78.60;;;;;;5032525;28;20984;-70
2023/06/13 10:05:46;;;;;;;0.90;0.90;;;27.20;77.50;;;;;;5034956;28;20437;-70
2023/06/13 10:08:13;;;;;;;1.38;1.20;;;27.60;79.20;;;;;;5035735;28;20436;-70
2023/06/13 10:10:40;;;;;;;1.08;1.02;;;27.70;80.30;;;;;;5039592;28;20479;-70
2023/06/13 10:13:13;;;;;;;1.55;1.45;;;27.60;79.90;;;;;;5034794;28;20924;-71
2023/06/13 10:15:45;;;;;;;1.00;1.00;;;27.30;76.50;;;;;;5039569;28;20839;-70
2023/06/13 10:18:14;;;;;;;0.88;0.88;;;27.50;78.40;;;;;;5038945;28;20428;-70
2023/06/13 10:20:47;;;;;;;1.55;1.27;;;27.80;79.70;;;;;;5039636;28;20482;-70
2023/06/13 10:23:18;;;;;;;0.90;0.90;;;27.60;78.80;;;;;;5040026;28;20434;-70
2023/06/13 10:25:54;;;;;;;1.25;1.00;;;27.70;78.60;;;;;;5038450;28;20939;-70
2023/06/13 10:28:26;;;;;;;0.88;0.88;;;28.20;82.50;;;;;;5038035;28;20511;-70
2023/06/13 10:31:26;;;;;;;1.27;0.98;;;28.40;83.10;;;;;;5038966;28;20461;-70
2023/06/13 10:34:20;;;;;;;1.20;1.20;;;27.40;76.70;;;;;;5038306;28;20429;-71
2023/06/13 10:37:01;;;;;;;0.98;0.98;;;27.20;76.10;;;;;;5041240;28;20526;-70
2023/06/13 10:39:47;;;;;;;0.90;0.90;;;27.50;77.80;;;;;;5034280;28;20541;-70
2023/06/13 10:42:32;;;;;;;1.80;1.13;;;27.90;79.10;;;;;;5042268;28;20421;-70
2023/06/13 10:45:07;;;;;;;1.13;1.02;;;26.90;73.80;;;;;;5032122;28;21044;-70
2023/06/13 10:47:37;;;;;;;1.25;1.02;;;26.70;72.60;;;;;;5037326;28;20842;-70
2023/06/13 10:50:04;;;;;;;0.90;0.90;;;27.10;74.10;;;;;;5037558;28;20842;-71
2023/06/13 10:52:34;;;;;;;1.10;1.10;;;27.30;75.90;;;;;;5039087;28;20437;-70
2023/06/13 10:55:02;;;;;;;1.00;1.00;;;27.70;77.60;;;;;;5034507;28;20443;-70
2023/06/13 10:57:54;;;;;;;1.50;0.85;;;27.90;79.60;;;;;;5035859;28;20457;-70
2023/06/13 11:00:31;;;;;;;2.50;0.85;;;28.20;80.20;;;;;;5032854;28;20575;-70
2023/06/13 11:03:06;;;;;;;1.30;1.20;;;28.00;78.80;;;;;;5047987;28;20460;-70
2023/06/13 11:05:36;;;;;;;0.80;0.80;;;28.60;81.90;;;;;;5034535;28;22403;-71
2023/06/13 11:08:20;;;;;;;0.90;0.90;;;28.40;80.90;;;;;;5038607;28;20447;-70
2023/06/13 11:10:49;;;;;;;0.80;0.80;;;28.20;80.00;;;;;;5037154;28;20441;-70
2023/06/13 11:13:31;;;;;;;0.98;0.98;;;27.90;77.00;;;;;;5032718;28;20475;-70
2023/06/13 11:16:17;;;;;;;0.80;0.80;;;27.80;76.50;;;;;;5032531;28;20487;-70
2023/06/13 11:18:48;;;;;;;0.75;0.75;;;27.60;76.20;;;;;;5036859;28;20449;-71
2023/06/13 11:21:15;;;;;;;0.85;0.85;;;27.50;75.10;;;;;;5037154;28;20482;-70
2023/06/13 11:23:49;;;;;;;0.93;0.93;;;27.90;77.90;;;;;;5034328;28;20947;-71
2023/06/13 11:26:20;;;;;;;1.02;0.93;;;28.20;78.70;;;;;;5036614;28;20924;-71
2023/06/13 11:28:51;;;;;;;5.55;1.20;;;28.20;78.50;;;;;;5037996;28;20876;-70
2023/06/13 11:31:18;;;;;;;0.80;0.80;;;28.30;78.70;;;;;;5028488;28;20431;-70
2023/06/13 11:33:54;;;;;;;0.90;0.90;;;28.60;80.40;;;;;;5029371;28;21006;-71
2023/06/13 11:36:24;;;;;;;0.80;0.80;;;28.60;80.40;;;;;;5038563;28;20827;-70
2023/06/13 11:39:29;;;;;;;1.20;1.00;;;28.70;80.50;;;;;;5040646;28;20588;-70
2023/06/13 11:42:00;;;;;;;1.00;1.00;;;28.50;80.30;;;;;;5037154;28;20529;-70
2023/06/13 11:44:27;;;;;;;0.85;0.85;;;28.70;80.80;;;;;;5037115;28;20425;-70
2023/06/13 11:46:54;;;;;;;1.10;0.95;;;28.30;77.60;;;;;;5035481;28;20835;-70
2023/06/13 11:49:21;;;;;;;1.02;1.00;;;28.40;78.40;;;;;;5038000;28;20443;-70
2023/06/13 11:51:59;;;;;;;0.93;0.93;;;28.40;78.20;;;;;;5037517;28;20507;-70
2023/06/13 11:54:30;;;;;;;0.95;0.95;;;28.10;75.00;;;;;;5030007;28;20863;-70
2023/06/13 11:56:59;;;;;;;1.20;1.20;;;27.90;74.20;;;;;;5040144;28;20995;-71
2023/06/13 11:59:26;;;;;;;0.70;0.70;;;27.50;72.90;;;;;;5040906;28;20433;-70
2023/06/13 12:01:54;;;;;;;0.77;0.77;;;27.80;73.80;;;;;;5037161;28;20487;-70
2023/06/13 12:04:25;;;;;;;3.17;1.17;;;27.90;73.70;;;;;;5067934;28;20429;-70
2023/06/13 12:06:55;;;;;;;0.80;0.80;;;27.60;73.50;;;;;;5068111;28;20438;-70
2023/06/13 12:09:22;;;;;;;0.82;0.82;;;27.80;73.60;;;;;;5038150;28;20504;-70
2023/06/13 12:11:51;;;;;;;1.23;0.90;;;27.70;72.80;;;;;;5042162;28;20463;-70
2023/06/13 12:14:20;;;;;;;1.00;1.00;;;27.90;73.60;;;;;;5035955;28;20587;-71
2023/06/13 12:16:54;;;;;;;0.75;0.75;;;28.20;76.20;;;;;;5040919;28;20498;-70
2023/06/13 12:19:22;;;;;;;0.80;0.80;;;27.90;74.10;;;;;;5040507;28;20433;-70
2023/06/13 12:21:53;;;;;;;1.08;1.00;;;28.30;75.50;;;;;;5039533;28;20437;-70
2023/06/13 12:24:23;;;;;;;0.80;0.80;;;28.60;77.70;;;;;;5041428;28;20459;-70
2023/06/13 12:26:50;;;;;;;0.80;0.80;;;28.50;78.10;;;;;;5039574;28;20498;-70
2023/06/13 12:29:17;;;;;;;1.00;1.00;;;28.60;77.30;;;;;;5034104;28;20425;-70
2023/06/13 12:31:45;;;;;;;1.27;1.17;;;28.20;75.00;;;;;;5039326;28;20433;-70
2023/06/13 12:34:31;;;;;;;0.97;0.97;;;27.90;73.60;;;;;;5042884;28;20931;-70
2023/06/13 12:37:03;;;;;;;0.82;0.82;;;27.80;72.80;;;;;;5043977;28;20899;-70
2023/06/13 12:39:31;;;;;;;1.00;1.00;;;28.20;74.10;;;;;;5040160;28;20433;-70
2023/06/13 12:42:03;;;;;;;0.90;0.90;;;28.50;76.30;;;;;;5041264;28;20557;-70
2023/06/13 12:44:34;;;;;;;4.10;1.08;;;28.70;77.40;;;;;;5041853;28;20517;-70
2023/06/13 12:47:03;;;;;;;1.10;1.10;;;28.60;76.50;;;;;;5042225;28;20429;-70
2023/06/13 12:49:38;;;;;;;0.80;0.80;;;28.70;76.90;;;;;;5043998;28;20429;-70
2023/06/13 12:52:07;;;;;;;1.80;1.20;;;28.60;75.20;;;;;;5040827;28;20480;-71
2023/06/13 12:54:40;;;;;;;1.48;1.00;;;28.40;74.70;;;;;;5039969;28;20441;-70
2023/06/13 12:57:09;;;;;;;3.10;1.00;;;28.20;74.00;;;;;;5040441;28;20530;-70
2023/06/13 12:59:37;;;;;;;0.80;0.70;;;27.50;70.20;;;;;;5041588;28;20429;-71
2023/06/13 13:02:08;;;;;;;1.63;0.98;;;27.90;70.90;;;;;;5041286;28;20433;-71